sensor_id;sensor_type;location;lat;lon;timestamp;P1;durP1;ratioP1;P2;durP2;ratioP2
34242;SDS011;20504;43.214;27.920;2023-07-02T00:00:36;3.88;;;2.95;;
34242;SDS011;20504;43.214;27.920;2023-07-02T00:03:09;5.25;;;2.88;;
34242;SDS011;20504;43.214;27.920;2023-07-02T00:05:35;5.35;;;3.30;;
34242;SDS011;20504;43.214;27.920;2023-07-02T00:08:02;7.35;;;3.03;;
34242;SDS011;20504;43.214;27.920;2023-07-02T00:10:32;3.38;;;2.70;;
34242;SDS011;20504;43.214;27.920;2023-07-02T00:12:57;4.85;;;3.00;;
34242;SDS011;20504;43.214;27.920;2023-07-02T00:15:22;4.17;;;2.73;;
34242;SDS011;20504;43.214;27.920;2023-07-02T00:17:51;6.43;;;2.92;;
34242;SDS011;20504;43.214;27.920;2023-07-02T00:20:16;6.47;;;2.97;;
34242;SDS011;20504;43.214;27.920;2023-07-02T00:22:43;5.23;;;2.60;;
34242;SDS011;20504;43.214;27.920;2023-07-02T00:25:11;5.97;;;3.13;;
34242;SDS011;20504;43.214;27.920;2023-07-02T00:27:38;4.07;;;2.72;;
34242;SDS011;20504;43.214;27.920;2023-07-02T00:30:04;3.50;;;2.60;;
34242;SDS011;20504;43.214;27.920;2023-07-02T00:32:33;8.75;;;2.58;;
34242;SDS011;20504;43.214;27.920;2023-07-02T00:34:59;6.80;;;2.90;;
34242;SDS011;20504;43.214;27.920;2023-07-02T00:37:27;6.67;;;2.80;;
34242;SDS011;20504;43.214;27.920;2023-07-02T00:39:54;5.10;;;3.08;;
34242;SDS011;20504;43.214;27.920;2023-07-02T00:42:20;7.13;;;3.15;;
34242;SDS011;20504;43.214;27.920;2023-07-02T00:44:46;4.75;;;2.97;;
34242;SDS011;20504;43.214;27.920;2023-07-02T00:47:12;3.80;;;2.70;;
34242;SDS011;20504;43.214;27.920;2023-07-02T00:49:39;5.35;;;3.13;;
34242;SDS011;20504;43.214;27.920;2023-07-02T00:54:31;8.85;;;3.42;;
34242;SDS011;20504;43.214;27.920;2023-07-02T00:56:57;6.30;;;3.20;;
34242;SDS011;20504;43.214;27.920;2023-07-02T00:59:29;3.90;;;2.72;;
34242;SDS011;20504;43.214;27.920;2023-07-02T01:01:55;6.90;;;3.60;;
34242;SDS011;20504;43.214;27.920;2023-07-02T01:04:24;5.07;;;3.20;;
34242;SDS011;20504;43.214;27.920;2023-07-02T01:06:52;9.05;;;3.58;;
34242;SDS011;20504;43.214;27.920;2023-07-02T01:09:22;4.68;;;4.10;;
34242;SDS011;20504;43.214;27.920;2023-07-02T01:11:55;5.32;;;3.38;;
34242;SDS011;20504;43.214;27.920;2023-07-02T01:14:26;8.20;;;3.40;;
34242;SDS011;20504;43.214;27.920;2023-07-02T01:16:56;4.68;;;3.55;;
34242;SDS011;20504;43.214;27.920;2023-07-02T01:22:21;7.85;;;3.92;;
34242;SDS011;20504;43.214;27.920;2023-07-02T01:24:50;8.30;;;3.60;;
34242;SDS011;20504;43.214;27.920;2023-07-02T01:27:30;6.20;;;3.40;;
34242;SDS011;20504;43.214;27.920;2023-07-02T01:30:00;4.63;;;3.65;;
34242;SDS011;20504;43.214;27.920;2023-07-02T01:32:29;7.20;;;3.72;;
34242;SDS011;20504;43.214;27.920;2023-07-02T01:34:57;7.63;;;3.50;;
34242;SDS011;20504;43.214;27.920;2023-07-02T01:37:26;6.93;;;3.85;;
34242;SDS011;20504;43.214;27.920;2023-07-02T01:40:05;8.50;;;3.75;;
34242;SDS011;20504;43.214;27.920;2023-07-02T01:42:32;6.15;;;3.88;;
34242;SDS011;20504;43.214;27.920;2023-07-02T01:44:58;4.18;;;3.78;;
34242;SDS011;20504;43.214;27.920;2023-07-02T01:47:23;4.07;;;3.67;;
34242;SDS011;20504;43.214;27.920;2023-07-02T01:49:49;6.40;;;4.03;;
34242;SDS011;20504;43.214;27.920;2023-07-02T01:54:48;7.50;;;4.07;;
34242;SDS011;20504;43.214;27.920;2023-07-02T01:57:17;5.30;;;4.00;;
34242;SDS011;20504;43.214;27.920;2023-07-02T02:00:13;5.20;;;4.10;;
34242;SDS011;20504;43.214;27.920;2023-07-02T02:05:05;6.65;;;4.40;;
34242;SDS011;20504;43.214;27.920;2023-07-02T02:07:37;7.80;;;4.43;;
34242;SDS011;20504;43.214;27.920;2023-07-02T02:10:11;7.43;;;4.30;;
34242;SDS011;20504;43.214;27.920;2023-07-02T02:12:44;6.78;;;3.90;;
34242;SDS011;20504;43.214;27.920;2023-07-02T02:15:14;10.60;;;5.10;;
34242;SDS011;20504;43.214;27.920;2023-07-02T02:17:43;6.15;;;4.32;;
34242;SDS011;20504;43.214;27.920;2023-07-02T02:20:09;7.20;;;4.78;;
34242;SDS011;20504;43.214;27.920;2023-07-02T02:22:35;11.02;;;5.35;;
34242;SDS011;20504;43.214;27.920;2023-07-02T02:25:06;11.13;;;4.97;;
34242;SDS011;20504;43.214;27.920;2023-07-02T02:27:32;8.60;;;4.45;;
34242;SDS011;20504;43.214;27.920;2023-07-02T02:30:16;7.22;;;4.90;;
34242;SDS011;20504;43.214;27.920;2023-07-02T02:32:41;8.80;;;5.20;;
34242;SDS011;20504;43.214;27.920;2023-07-02T02:35:08;6.93;;;4.97;;
34242;SDS011;20504;43.214;27.920;2023-07-02T02:37:37;6.77;;;4.80;;
34242;SDS011;20504;43.214;27.920;2023-07-02T02:40:04;7.25;;;4.70;;
34242;SDS011;20504;43.214;27.920;2023-07-02T02:42:30;7.53;;;4.95;;
34242;SDS011;20504;43.214;27.920;2023-07-02T02:44:59;8.73;;;5.22;;
34242;SDS011;20504;43.214;27.920;2023-07-02T02:47:25;6.20;;;4.75;;
34242;SDS011;20504;43.214;27.920;2023-07-02T02:49:50;7.77;;;4.90;;
34242;SDS011;20504;43.214;27.920;2023-07-02T02:52:16;11.88;;;5.45;;
34242;SDS011;20504;43.214;27.920;2023-07-02T02:57:09;11.35;;;5.15;;
34242;SDS011;20504;43.214;27.920;2023-07-02T02:59:34;6.37;;;5.00;;
34242;SDS011;20504;43.214;27.920;2023-07-02T03:02:06;8.05;;;5.05;;
34242;SDS011;20504;43.214;27.920;2023-07-02T03:04:37;9.18;;;4.47;;
34242;SDS011;20504;43.214;27.920;2023-07-02T03:07:05;10.18;;;4.95;;
34242;SDS011;20504;43.214;27.920;2023-07-02T03:09:33;7.25;;;4.72;;
34242;SDS011;20504;43.214;27.920;2023-07-02T03:12:05;9.80;;;4.82;;
34242;SDS011;20504;43.214;27.920;2023-07-02T03:14:33;7.57;;;5.45;;
34242;SDS011;20504;43.214;27.920;2023-07-02T03:17:05;10.10;;;5.10;;
34242;SDS011;20504;43.214;27.920;2023-07-02T03:19:33;6.87;;;4.83;;
34242;SDS011;20504;43.214;27.920;2023-07-02T03:21:59;6.60;;;4.75;;
34242;SDS011;20504;43.214;27.920;2023-07-02T03:24:25;9.27;;;5.70;;
34242;SDS011;20504;43.214;27.920;2023-07-02T03:26:50;9.23;;;5.30;;
34242;SDS011;20504;43.214;27.920;2023-07-02T03:29:22;8.48;;;5.95;;
34242;SDS011;20504;43.214;27.920;2023-07-02T03:31:50;10.38;;;6.72;;
34242;SDS011;20504;43.214;27.920;2023-07-02T03:34:17;8.82;;;5.70;;
34242;SDS011;20504;43.214;27.920;2023-07-02T03:36:46;6.75;;;4.78;;
34242;SDS011;20504;43.214;27.920;2023-07-02T03:39:17;8.60;;;5.03;;
34242;SDS011;20504;43.214;27.920;2023-07-02T03:41:44;8.93;;;5.75;;
34242;SDS011;20504;43.214;27.920;2023-07-02T03:44:12;8.95;;;5.80;;
34242;SDS011;20504;43.214;27.920;2023-07-02T03:46:37;10.03;;;6.77;;
34242;SDS011;20504;43.214;27.920;2023-07-02T03:49:10;10.35;;;4.63;;
34242;SDS011;20504;43.214;27.920;2023-07-02T03:51:41;8.95;;;5.10;;
34242;SDS011;20504;43.214;27.920;2023-07-02T03:54:08;7.60;;;4.82;;
34242;SDS011;20504;43.214;27.920;2023-07-02T03:56:45;7.32;;;4.55;;
34242;SDS011;20504;43.214;27.920;2023-07-02T03:59:35;7.07;;;4.88;;
34242;SDS011;20504;43.214;27.920;2023-07-02T04:02:02;6.97;;;4.70;;
34242;SDS011;20504;43.214;27.920;2023-07-02T04:04:30;5.78;;;4.40;;
34242;SDS011;20504;43.214;27.920;2023-07-02T04:06:57;7.28;;;4.50;;
34242;SDS011;20504;43.214;27.920;2023-07-02T04:11:48;8.13;;;5.03;;
34242;SDS011;20504;43.214;27.920;2023-07-02T04:14:14;8.50;;;3.83;;
34242;SDS011;20504;43.214;27.920;2023-07-02T04:16:43;6.05;;;4.10;;
34242;SDS011;20504;43.214;27.920;2023-07-02T04:19:10;8.93;;;4.05;;
34242;SDS011;20504;43.214;27.920;2023-07-02T04:21:36;5.90;;;4.50;;
34242;SDS011;20504;43.214;27.920;2023-07-02T04:24:02;7.68;;;4.57;;
34242;SDS011;20504;43.214;27.920;2023-07-02T04:26:30;8.07;;;4.05;;
34242;SDS011;20504;43.214;27.920;2023-07-02T04:29:02;9.10;;;3.67;;
34242;SDS011;20504;43.214;27.920;2023-07-02T04:31:30;5.28;;;3.70;;
34242;SDS011;20504;43.214;27.920;2023-07-02T04:33:56;5.32;;;4.03;;
34242;SDS011;20504;43.214;27.920;2023-07-02T04:36:23;7.70;;;3.50;;
34242;SDS011;20504;43.214;27.920;2023-07-02T04:38:53;6.75;;;3.85;;
34242;SDS011;20504;43.214;27.920;2023-07-02T04:43:45;6.43;;;3.50;;
34242;SDS011;20504;43.214;27.920;2023-07-02T04:46:11;10.60;;;3.53;;
34242;SDS011;20504;43.214;27.920;2023-07-02T04:48:40;6.70;;;3.25;;
34242;SDS011;20504;43.214;27.920;2023-07-02T04:51:06;7.93;;;3.58;;
34242;SDS011;20504;43.214;27.920;2023-07-02T04:53:35;7.67;;;3.60;;
34242;SDS011;20504;43.214;27.920;2023-07-02T04:56:04;6.65;;;3.53;;
34242;SDS011;20504;43.214;27.920;2023-07-02T04:58:31;9.30;;;3.88;;
34242;SDS011;20504;43.214;27.920;2023-07-02T05:00:58;10.60;;;4.43;;
34242;SDS011;20504;43.214;27.920;2023-07-02T05:03:26;5.28;;;4.13;;
34242;SDS011;20504;43.214;27.920;2023-07-02T05:05:57;5.90;;;4.30;;
34242;SDS011;20504;43.214;27.920;2023-07-02T05:08:23;7.17;;;3.90;;
34242;SDS011;20504;43.214;27.920;2023-07-02T05:10:49;6.25;;;3.85;;
34242;SDS011;20504;43.214;27.920;2023-07-02T05:13:20;11.88;;;4.20;;
34242;SDS011;20504;43.214;27.920;2023-07-02T05:15:46;7.72;;;4.00;;
34242;SDS011;20504;43.214;27.920;2023-07-02T05:18:14;7.03;;;3.80;;
34242;SDS011;20504;43.214;27.920;2023-07-02T05:20:42;5.05;;;3.67;;
34242;SDS011;20504;43.214;27.920;2023-07-02T05:23:08;6.87;;;3.60;;
34242;SDS011;20504;43.214;27.920;2023-07-02T05:25:36;4.47;;;3.67;;
34242;SDS011;20504;43.214;27.920;2023-07-02T05:28:03;7.63;;;3.88;;
34242;SDS011;20504;43.214;27.920;2023-07-02T05:30:35;5.63;;;3.40;;
34242;SDS011;20504;43.214;27.920;2023-07-02T05:33:04;5.97;;;3.53;;
34242;SDS011;20504;43.214;27.920;2023-07-02T05:35:32;6.25;;;3.83;;
34242;SDS011;20504;43.214;27.920;2023-07-02T05:37:58;6.80;;;3.90;;
34242;SDS011;20504;43.214;27.920;2023-07-02T05:40:28;6.80;;;4.03;;
34242;SDS011;20504;43.214;27.920;2023-07-02T05:42:56;9.43;;;4.18;;
34242;SDS011;20504;43.214;27.920;2023-07-02T05:45:22;6.67;;;3.70;;
34242;SDS011;20504;43.214;27.920;2023-07-02T05:47:48;6.00;;;4.05;;
34242;SDS011;20504;43.214;27.920;2023-07-02T05:50:17;6.85;;;3.97;;
34242;SDS011;20504;43.214;27.920;2023-07-02T05:52:46;5.68;;;3.65;;
34242;SDS011;20504;43.214;27.920;2023-07-02T05:57:50;8.50;;;3.65;;
34242;SDS011;20504;43.214;27.920;2023-07-02T06:00:26;6.70;;;3.88;;
34242;SDS011;20504;43.214;27.920;2023-07-02T06:03:05;4.90;;;3.58;;
34242;SDS011;20504;43.214;27.920;2023-07-02T06:05:32;7.38;;;3.78;;
34242;SDS011;20504;43.214;27.920;2023-07-02T06:08:02;5.07;;;3.60;;
34242;SDS011;20504;43.214;27.920;2023-07-02T06:10:29;4.93;;;3.72;;
34242;SDS011;20504;43.214;27.920;2023-07-02T06:12:58;6.95;;;3.60;;
34242;SDS011;20504;43.214;27.920;2023-07-02T06:15:25;8.55;;;3.90;;
34242;SDS011;20504;43.214;27.920;2023-07-02T06:17:51;6.25;;;4.05;;
34242;SDS011;20504;43.214;27.920;2023-07-02T06:20:19;5.03;;;3.70;;
34242;SDS011;20504;43.214;27.920;2023-07-02T06:22:46;5.65;;;4.20;;
34242;SDS011;20504;43.214;27.920;2023-07-02T06:25:15;4.50;;;3.58;;
34242;SDS011;20504;43.214;27.920;2023-07-02T06:27:40;6.40;;;4.10;;
34242;SDS011;20504;43.214;27.920;2023-07-02T06:30:06;5.17;;;4.13;;
34242;SDS011;20504;43.214;27.920;2023-07-02T06:32:32;6.45;;;4.60;;
34242;SDS011;20504;43.214;27.920;2023-07-02T06:37:33;5.22;;;4.03;;
34242;SDS011;20504;43.214;27.920;2023-07-02T06:40:00;6.38;;;4.05;;
34242;SDS011;20504;43.214;27.920;2023-07-02T06:42:29;7.15;;;4.25;;
34242;SDS011;20504;43.214;27.920;2023-07-02T06:45:01;9.05;;;4.25;;
34242;SDS011;20504;43.214;27.920;2023-07-02T06:47:29;7.70;;;5.35;;
34242;SDS011;20504;43.214;27.920;2023-07-02T06:50:18;7.85;;;4.90;;
34242;SDS011;20504;43.214;27.920;2023-07-02T06:52:43;4.97;;;4.47;;
34242;SDS011;20504;43.214;27.920;2023-07-02T06:55:15;6.68;;;4.78;;
34242;SDS011;20504;43.214;27.920;2023-07-02T06:57:48;10.18;;;4.10;;
34242;SDS011;20504;43.214;27.920;2023-07-02T07:00:39;10.45;;;5.03;;
34242;SDS011;20504;43.214;27.920;2023-07-02T07:03:08;10.45;;;5.00;;
34242;SDS011;20504;43.214;27.920;2023-07-02T07:05:35;9.27;;;4.63;;
34242;SDS011;20504;43.214;27.920;2023-07-02T07:08:00;6.37;;;4.63;;
34242;SDS011;20504;43.214;27.920;2023-07-02T07:10:28;7.20;;;4.05;;
34242;SDS011;20504;43.214;27.920;2023-07-02T07:13:00;5.82;;;4.00;;
34242;SDS011;20504;43.214;27.920;2023-07-02T07:15:32;7.00;;;4.30;;
34242;SDS011;20504;43.214;27.920;2023-07-02T07:18:20;9.27;;;4.35;;
34242;SDS011;20504;43.214;27.920;2023-07-02T07:20:49;6.80;;;3.95;;
34242;SDS011;20504;43.214;27.920;2023-07-02T07:23:36;8.20;;;4.65;;
34242;SDS011;20504;43.214;27.920;2023-07-02T07:26:02;6.38;;;4.65;;
34242;SDS011;20504;43.214;27.920;2023-07-02T07:28:32;5.13;;;4.63;;
34242;SDS011;20504;43.214;27.920;2023-07-02T07:31:08;10.70;;;5.00;;
34242;SDS011;20504;43.214;27.920;2023-07-02T07:33:35;7.72;;;5.22;;
34242;SDS011;20504;43.214;27.920;2023-07-02T07:36:02;6.85;;;5.22;;
34242;SDS011;20504;43.214;27.920;2023-07-02T07:38:29;10.48;;;5.25;;
34242;SDS011;20504;43.214;27.920;2023-07-02T07:40:55;8.48;;;4.35;;
34242;SDS011;20504;43.214;27.920;2023-07-02T07:43:22;9.75;;;4.30;;
34242;SDS011;20504;43.214;27.920;2023-07-02T07:45:48;7.63;;;4.65;;
34242;SDS011;20504;43.214;27.920;2023-07-02T07:48:16;7.47;;;4.43;;
34242;SDS011;20504;43.214;27.920;2023-07-02T07:50:44;7.72;;;5.38;;
34242;SDS011;20504;43.214;27.920;2023-07-02T07:53:17;8.55;;;5.65;;
34242;SDS011;20504;43.214;27.920;2023-07-02T07:55:43;7.13;;;4.60;;
34242;SDS011;20504;43.214;27.920;2023-07-02T07:58:13;7.95;;;4.15;;
34242;SDS011;20504;43.214;27.920;2023-07-02T08:00:42;8.77;;;4.53;;
34242;SDS011;20504;43.214;27.920;2023-07-02T08:03:10;7.30;;;4.50;;
34242;SDS011;20504;43.214;27.920;2023-07-02T08:05:36;5.38;;;4.70;;
34242;SDS011;20504;43.214;27.920;2023-07-02T08:08:02;10.05;;;4.95;;
34242;SDS011;20504;43.214;27.920;2023-07-02T08:10:30;8.90;;;4.70;;
34242;SDS011;20504;43.214;27.920;2023-07-02T08:12:56;8.70;;;4.47;;
34242;SDS011;20504;43.214;27.920;2023-07-02T08:15:22;5.88;;;4.13;;
34242;SDS011;20504;43.214;27.920;2023-07-02T08:17:49;7.15;;;4.38;;
34242;SDS011;20504;43.214;27.920;2023-07-02T08:26:10;7.18;;;4.38;;
34242;SDS011;20504;43.214;27.920;2023-07-02T08:28:36;5.15;;;3.92;;
34242;SDS011;20504;43.214;27.920;2023-07-02T08:31:04;13.52;;;4.65;;
34242;SDS011;20504;43.214;27.920;2023-07-02T08:33:31;6.13;;;4.75;;
34242;SDS011;20504;43.214;27.920;2023-07-02T08:41:57;12.27;;;5.03;;
34242;SDS011;20504;43.214;27.920;2023-07-02T08:46:50;7.10;;;5.25;;
34242;SDS011;20504;43.214;27.920;2023-07-02T08:49:20;6.78;;;4.82;;
34242;SDS011;20504;43.214;27.920;2023-07-02T08:51:47;9.35;;;5.80;;
34242;SDS011;20504;43.214;27.920;2023-07-02T08:56:50;9.80;;;5.25;;
34242;SDS011;20504;43.214;27.920;2023-07-02T08:59:26;8.05;;;5.53;;
34242;SDS011;20504;43.214;27.920;2023-07-02T09:01:56;5.53;;;4.72;;
34242;SDS011;20504;43.214;27.920;2023-07-02T09:04:28;9.50;;;5.28;;
34242;SDS011;20504;43.214;27.920;2023-07-02T09:07:05;9.05;;;7.00;;
34242;SDS011;20504;43.214;27.920;2023-07-02T09:13:04;6.80;;;4.82;;
34242;SDS011;20504;43.214;27.920;2023-07-02T09:15:43;10.73;;;4.40;;
34242;SDS011;20504;43.214;27.920;2023-07-02T09:18:19;8.68;;;5.05;;
34242;SDS011;20504;43.214;27.920;2023-07-02T09:20:58;5.85;;;4.85;;
34242;SDS011;20504;43.214;27.920;2023-07-02T09:23:42;9.57;;;4.65;;
34242;SDS011;20504;43.214;27.920;2023-07-02T09:26:18;6.93;;;4.70;;
34242;SDS011;20504;43.214;27.920;2023-07-02T09:28:45;12.37;;;5.20;;
34242;SDS011;20504;43.214;27.920;2023-07-02T09:31:10;5.35;;;4.78;;
34242;SDS011;20504;43.214;27.920;2023-07-02T09:33:37;9.55;;;5.05;;
34242;SDS011;20504;43.214;27.920;2023-07-02T09:36:03;6.87;;;4.87;;
34242;SDS011;20504;43.214;27.920;2023-07-02T09:38:29;6.05;;;5.03;;
34242;SDS011;20504;43.214;27.920;2023-07-02T09:40:56;12.25;;;4.75;;
34242;SDS011;20504;43.214;27.920;2023-07-02T09:43:26;8.10;;;4.00;;
34242;SDS011;20504;43.214;27.920;2023-07-02T09:45:53;7.55;;;4.40;;
34242;SDS011;20504;43.214;27.920;2023-07-02T09:48:23;9.52;;;4.75;;
34242;SDS011;20504;43.214;27.920;2023-07-02T09:50:56;7.53;;;4.45;;
34242;SDS011;20504;43.214;27.920;2023-07-02T09:53:23;7.65;;;4.65;;
34242;SDS011;20504;43.214;27.920;2023-07-02T09:55:54;9.93;;;4.30;;
34242;SDS011;20504;43.214;27.920;2023-07-02T09:58:20;8.02;;;4.90;;
34242;SDS011;20504;43.214;27.920;2023-07-02T10:00:46;9.18;;;5.60;;
34242;SDS011;20504;43.214;27.920;2023-07-02T10:03:12;6.88;;;4.60;;
34242;SDS011;20504;43.214;27.920;2023-07-02T10:05:37;7.53;;;4.57;;
34242;SDS011;20504;43.214;27.920;2023-07-02T10:08:14;6.32;;;3.90;;
34242;SDS011;20504;43.214;27.920;2023-07-02T10:10:43;9.70;;;4.25;;
34242;SDS011;20504;43.214;27.920;2023-07-02T10:13:10;6.40;;;4.28;;
34242;SDS011;20504;43.214;27.920;2023-07-02T10:15:38;9.35;;;4.50;;
34242;SDS011;20504;43.214;27.920;2023-07-02T10:18:05;9.68;;;4.72;;
34242;SDS011;20504;43.214;27.920;2023-07-02T10:20:34;6.30;;;4.20;;
34242;SDS011;20504;43.214;27.920;2023-07-02T10:23:00;12.88;;;4.75;;
34242;SDS011;20504;43.214;27.920;2023-07-02T10:25:31;8.25;;;4.68;;
34242;SDS011;20504;43.214;27.920;2023-07-02T10:28:14;5.53;;;4.18;;
34242;SDS011;20504;43.214;27.920;2023-07-02T10:30:42;12.38;;;4.65;;
34242;SDS011;20504;43.214;27.920;2023-07-02T10:33:13;5.97;;;4.80;;
34242;SDS011;20504;43.214;27.920;2023-07-02T10:35:40;6.82;;;5.03;;
34242;SDS011;20504;43.214;27.920;2023-07-02T10:40:54;8.55;;;4.50;;
34242;SDS011;20504;43.214;27.920;2023-07-02T10:43:28;7.55;;;4.40;;
34242;SDS011;20504;43.214;27.920;2023-07-02T10:45:54;5.72;;;4.28;;
34242;SDS011;20504;43.214;27.920;2023-07-02T10:48:20;8.55;;;4.70;;
34242;SDS011;20504;43.214;27.920;2023-07-02T10:51:12;5.32;;;4.25;;
34242;SDS011;20504;43.214;27.920;2023-07-02T10:53:45;9.55;;;5.45;;
34242;SDS011;20504;43.214;27.920;2023-07-02T10:56:45;5.07;;;3.90;;
34242;SDS011;20504;43.214;27.920;2023-07-02T10:59:23;5.50;;;3.47;;
34242;SDS011;20504;43.214;27.920;2023-07-02T11:02:17;7.20;;;4.28;;
34242;SDS011;20504;43.214;27.920;2023-07-02T11:05:02;5.57;;;3.35;;
34242;SDS011;20504;43.214;27.920;2023-07-02T11:08:07;7.03;;;4.00;;
34242;SDS011;20504;43.214;27.920;2023-07-02T11:10:50;6.65;;;4.03;;
34242;SDS011;20504;43.214;27.920;2023-07-02T11:13:29;6.32;;;4.00;;
34242;SDS011;20504;43.214;27.920;2023-07-02T11:19:05;6.70;;;3.78;;
34242;SDS011;20504;43.214;27.920;2023-07-02T11:24:09;6.85;;;3.58;;
34242;SDS011;20504;43.214;27.920;2023-07-02T11:26:47;7.85;;;4.00;;
34242;SDS011;20504;43.214;27.920;2023-07-02T11:31:50;7.80;;;3.90;;
34242;SDS011;20504;43.214;27.920;2023-07-02T11:34:22;5.00;;;4.45;;
34242;SDS011;20504;43.214;27.920;2023-07-02T11:39:30;6.10;;;4.07;;
34242;SDS011;20504;43.214;27.920;2023-07-02T11:42:03;7.03;;;4.90;;
34242;SDS011;20504;43.214;27.920;2023-07-02T11:44:33;6.28;;;4.32;;
34242;SDS011;20504;43.214;27.920;2023-07-02T11:47:01;7.63;;;5.00;;
34242;SDS011;20504;43.214;27.920;2023-07-02T11:49:48;10.70;;;4.73;;
34242;SDS011;20504;43.214;27.920;2023-07-02T11:52:38;11.27;;;4.40;;
34242;SDS011;20504;43.214;27.920;2023-07-02T11:55:21;6.93;;;4.25;;
34242;SDS011;20504;43.214;27.920;2023-07-02T11:57:54;6.60;;;4.20;;
34242;SDS011;20504;43.214;27.920;2023-07-02T12:00:36;5.85;;;4.20;;
34242;SDS011;20504;43.214;27.920;2023-07-02T12:03:08;5.28;;;4.20;;
34242;SDS011;20504;43.214;27.920;2023-07-02T12:05:41;8.48;;;4.30;;
34242;SDS011;20504;43.214;27.920;2023-07-02T12:08:16;5.75;;;4.43;;
34242;SDS011;20504;43.214;27.920;2023-07-02T12:10:51;9.38;;;4.53;;
34242;SDS011;20504;43.214;27.920;2023-07-02T12:13:23;10.43;;;5.10;;
34242;SDS011;20504;43.214;27.920;2023-07-02T12:15:51;8.10;;;4.78;;
34242;SDS011;20504;43.214;27.920;2023-07-02T12:18:25;13.05;;;4.80;;
34242;SDS011;20504;43.214;27.920;2023-07-02T12:20:52;6.88;;;4.32;;
34242;SDS011;20504;43.214;27.920;2023-07-02T12:23:21;7.68;;;4.55;;
34242;SDS011;20504;43.214;27.920;2023-07-02T12:25:46;7.33;;;4.27;;
34242;SDS011;20504;43.214;27.920;2023-07-02T12:30:42;8.18;;;3.38;;
34242;SDS011;20504;43.214;27.920;2023-07-02T12:33:17;4.93;;;3.58;;
34242;SDS011;20504;43.214;27.920;2023-07-02T12:35:42;8.38;;;3.60;;
34242;SDS011;20504;43.214;27.920;2023-07-02T12:38:13;8.05;;;3.50;;
34242;SDS011;20504;43.214;27.920;2023-07-02T12:40:46;6.93;;;3.35;;
34242;SDS011;20504;43.214;27.920;2023-07-02T12:43:17;3.92;;;2.95;;
34242;SDS011;20504;43.214;27.920;2023-07-02T12:45:48;7.93;;;3.67;;
34242;SDS011;20504;43.214;27.920;2023-07-02T12:48:19;4.65;;;3.35;;
34242;SDS011;20504;43.214;27.920;2023-07-02T12:50:58;5.75;;;3.47;;
34242;SDS011;20504;43.214;27.920;2023-07-02T12:53:44;9.68;;;3.72;;
34242;SDS011;20504;43.214;27.920;2023-07-02T12:56:16;3.95;;;3.08;;
34242;SDS011;20504;43.214;27.920;2023-07-02T12:58:47;4.93;;;3.50;;
34242;SDS011;20504;43.214;27.920;2023-07-02T13:01:35;11.52;;;3.72;;
34242;SDS011;20504;43.214;27.920;2023-07-02T13:04:07;7.13;;;3.22;;
34242;SDS011;20504;43.214;27.920;2023-07-02T13:06:34;8.60;;;3.75;;
34242;SDS011;20504;43.214;27.920;2023-07-02T13:09:11;6.07;;;3.42;;
34242;SDS011;20504;43.214;27.920;2023-07-02T13:11:46;7.28;;;3.80;;
34242;SDS011;20504;43.214;27.920;2023-07-02T13:14:19;6.05;;;3.72;;
34242;SDS011;20504;43.214;27.920;2023-07-02T13:16:46;6.75;;;3.25;;
34242;SDS011;20504;43.214;27.920;2023-07-02T13:19:16;6.82;;;2.97;;
34242;SDS011;20504;43.214;27.920;2023-07-02T13:21:43;4.22;;;3.55;;
34242;SDS011;20504;43.214;27.920;2023-07-02T13:24:14;5.05;;;3.58;;
34242;SDS011;20504;43.214;27.920;2023-07-02T13:26:41;6.82;;;4.43;;
34242;SDS011;20504;43.214;27.920;2023-07-02T13:29:13;4.40;;;4.00;;
34242;SDS011;20504;43.214;27.920;2023-07-02T13:31:39;7.53;;;4.15;;
34242;SDS011;20504;43.214;27.920;2023-07-02T13:34:06;7.30;;;4.20;;
34242;SDS011;20504;43.214;27.920;2023-07-02T13:36:32;6.15;;;4.10;;
34242;SDS011;20504;43.214;27.920;2023-07-02T13:38:58;9.95;;;4.45;;
34242;SDS011;20504;43.214;27.920;2023-07-02T13:41:24;5.10;;;4.05;;
34242;SDS011;20504;43.214;27.920;2023-07-02T13:43:54;7.68;;;4.10;;
34242;SDS011;20504;43.214;27.920;2023-07-02T13:46:19;5.72;;;4.22;;
34242;SDS011;20504;43.214;27.920;2023-07-02T13:48:46;6.35;;;3.95;;
34242;SDS011;20504;43.214;27.920;2023-07-02T13:51:14;8.82;;;4.45;;
34242;SDS011;20504;43.214;27.920;2023-07-02T13:56:50;6.43;;;3.80;;
34242;SDS011;20504;43.214;27.920;2023-07-02T13:59:17;4.72;;;3.75;;
34242;SDS011;20504;43.214;27.920;2023-07-02T14:01:48;8.98;;;4.10;;
34242;SDS011;20504;43.214;27.920;2023-07-02T14:04:16;11.75;;;4.22;;
34242;SDS011;20504;43.214;27.920;2023-07-02T14:06:46;7.82;;;3.70;;
34242;SDS011;20504;43.214;27.920;2023-07-02T14:09:12;4.25;;;3.38;;
34242;SDS011;20504;43.214;27.920;2023-07-02T14:11:43;5.93;;;4.20;;
34242;SDS011;20504;43.214;27.920;2023-07-02T14:14:13;6.82;;;4.15;;
34242;SDS011;20504;43.214;27.920;2023-07-02T14:16:39;8.18;;;4.30;;
34242;SDS011;20504;43.214;27.920;2023-07-02T14:19:06;8.40;;;5.13;;
34242;SDS011;20504;43.214;27.920;2023-07-02T14:21:31;4.93;;;4.18;;
34242;SDS011;20504;43.214;27.920;2023-07-02T14:24:17;5.88;;;4.38;;
34242;SDS011;20504;43.214;27.920;2023-07-02T14:26:44;5.60;;;4.43;;
34242;SDS011;20504;43.214;27.920;2023-07-02T14:29:14;7.22;;;4.60;;
34242;SDS011;20504;43.214;27.920;2023-07-02T14:31:47;6.78;;;4.60;;
34242;SDS011;20504;43.214;27.920;2023-07-02T14:34:15;8.02;;;5.40;;
34242;SDS011;20504;43.214;27.920;2023-07-02T14:36:55;11.75;;;5.20;;
34242;SDS011;20504;43.214;27.920;2023-07-02T14:39:34;7.55;;;4.47;;
34242;SDS011;20504;43.214;27.920;2023-07-02T14:42:42;9.52;;;4.53;;
34242;SDS011;20504;43.214;27.920;2023-07-02T14:45:25;7.50;;;4.38;;
34242;SDS011;20504;43.214;27.920;2023-07-02T14:47:57;8.77;;;4.82;;
34242;SDS011;20504;43.214;27.920;2023-07-02T14:50:28;6.25;;;4.53;;
34242;SDS011;20504;43.214;27.920;2023-07-02T14:53:12;7.30;;;4.80;;
34242;SDS011;20504;43.214;27.920;2023-07-02T14:55:47;5.32;;;4.72;;
34242;SDS011;20504;43.214;27.920;2023-07-02T14:58:23;11.80;;;4.80;;
34242;SDS011;20504;43.214;27.920;2023-07-02T15:00:58;7.47;;;4.50;;
34242;SDS011;20504;43.214;27.920;2023-07-02T15:03:24;7.50;;;5.85;;
34242;SDS011;20504;43.214;27.920;2023-07-02T15:06:12;7.45;;;4.88;;
34242;SDS011;20504;43.214;27.920;2023-07-02T15:08:43;8.77;;;5.40;;
34242;SDS011;20504;43.214;27.920;2023-07-02T15:13:34;10.50;;;5.43;;
34242;SDS011;20504;43.214;27.920;2023-07-02T15:16:15;12.15;;;9.88;;
34242;SDS011;20504;43.214;27.920;2023-07-02T15:18:43;9.85;;;5.18;;
34242;SDS011;20504;43.214;27.920;2023-07-02T15:21:27;8.23;;;5.00;;
34242;SDS011;20504;43.214;27.920;2023-07-02T15:23:55;8.90;;;5.75;;
34242;SDS011;20504;43.214;27.920;2023-07-02T15:26:24;8.82;;;5.60;;
34242;SDS011;20504;43.214;27.920;2023-07-02T15:28:55;10.07;;;5.93;;
34242;SDS011;20504;43.214;27.920;2023-07-02T15:31:54;11.70;;;6.03;;
34242;SDS011;20504;43.214;27.920;2023-07-02T15:36:56;10.18;;;6.80;;
34242;SDS011;20504;43.214;27.920;2023-07-02T15:39:21;13.35;;;8.80;;
34242;SDS011;20504;43.214;27.920;2023-07-02T15:41:51;12.95;;;8.43;;
34242;SDS011;20504;43.214;27.920;2023-07-02T15:44:17;10.43;;;6.50;;
34242;SDS011;20504;43.214;27.920;2023-07-02T15:46:43;15.27;;;8.35;;
34242;SDS011;20504;43.214;27.920;2023-07-02T15:49:21;13.67;;;8.37;;
34242;SDS011;20504;43.214;27.920;2023-07-02T15:52:09;11.40;;;6.65;;
34242;SDS011;20504;43.214;27.920;2023-07-02T15:54:43;13.23;;;6.87;;
34242;SDS011;20504;43.214;27.920;2023-07-02T15:57:09;8.88;;;6.03;;
34242;SDS011;20504;43.214;27.920;2023-07-02T15:59:35;9.77;;;5.67;;